Corky — WDC3366 — position and weather

sailwx.info

Track history (hours):
 
Tides and Currents Weather Stations Pressure Air Temp Water Temp Dewpoint Dewpoint Depression Visibility Wind Speed Wind Dir Waves Ship Positions

Corky

Owner: Gulf South Marine Transportation, Inc., New Orleans, LA. More information available from US FCC via Universal Licensing System and Coast Guard Vessel Documentation Center.

Last reported at 2014-Oct-29 20:07 UTC. Time now 2014-Nov-01 01:16 UTC.
Position N 29°60' W 089°59'.

Length 18 m; draft 3.3 m.

Type: Tow > 200 m length. MMSI: 367006780.

Date/timePositionNaut miles runAvg speedWind from/ knotsBaromVisibWave heightAir tempDewpointWater temp
2014-Oct-29 20:07N 29°60' W 089°59'2 1.8
2014-Oct-29 19:17N 29°60' W 090°00'1 1.0
2014-Oct-29 18:32N 29°59' W 090°01'2 1.5
2014-Oct-29 17:19N 29°58' W 090°02'0 0.6
2014-Oct-29 16:32N 29°57' W 090°01'2 0.8
2014-Oct-29 13:33N 29°56' W 089°59'2 0.1
2014-Oct-28 06:16N 29°55' W 089°57'5 5.8
2014-Oct-28 05:21N 29°58' W 090°03'4 4.4
2014-Oct-28 04:23N 29°55' W 090°06'39 2.0
2014-Oct-27 08:33N 30°03' W 090°51'44 1.4
2014-Oct-26 01:08N 29°60' W 090°00'5 0.3
2014-Oct-25 10:22N 30°01' W 089°54'0 0.0
2014-Oct-25 09:32N 30°01' W 089°54'  
2014-Oct-21 09:27N 30°00' W 089°56'  
Track history (hours):
 
Tides and Currents Weather Stations Pressure Air Temp Water Temp Dewpoint Dewpoint Depression Visibility Wind Speed Wind Dir Waves Ship Positions

Corky

Owner: Gulf South Marine Transportation, Inc., New Orleans, LA. More information available from US FCC via Universal Licensing System and Coast Guard Vessel Documentation Center.

Last reported at 2014-Oct-29 20:07 UTC. Time now 2014-Nov-01 01:16 UTC.
Position N 29°60' W 089°59'.

Length 18 m; draft 3.3 m.

Type: Tow > 200 m length. MMSI: 367006780.

Date/timePositionNaut miles runAvg speedWind from/ knotsBaromVisibWave heightAir tempDewpointWater temp
2014-Oct-29 20:07N 29°60' W 089°59'2 1.8
2014-Oct-29 19:17N 29°60' W 090°00'1 1.0
2014-Oct-29 18:32N 29°59' W 090°01'2 1.5
2014-Oct-29 17:19N 29°58' W 090°02'0 0.6
2014-Oct-29 16:32N 29°57' W 090°01'2 0.8
2014-Oct-29 13:33N 29°56' W 089°59'2 0.1
2014-Oct-28 06:16N 29°55' W 089°57'5 5.8
2014-Oct-28 05:21N 29°58' W 090°03'4 4.4
2014-Oct-28 04:23N 29°55' W 090°06'39 2.0
2014-Oct-27 08:33N 30°03' W 090°51'44 1.4
2014-Oct-26 01:08N 29°60' W 090°00'5 0.3
2014-Oct-25 10:22N 30°01' W 089°54'0 0.0
2014-Oct-25 09:32N 30°01' W 089°54'  
2014-Oct-21 09:27N 30°00' W 089°56'  

Dump ship's entire track history